Time;durP1;ratioP1;P1;durP2;ratioP2;P2;SDS_P1;SDS_P2;PMS_P1;PMS_P2;Temp;Humidity;BMP_temperature;BMP_pressure;BME280_temperature;BME280_humidity;BME280_pressure;Samples;Min_cycle;Max_cycle;Signal;HPM_P1;HPM_P2
2022/10/15 00:00:00;;;;;;;0.20;0.20;;;;;;;;;;5006381;28;20176;-78
2022/10/15 00:02:25;;;;;;;0.23;0.17;;;;;;;;;;4999739;28;20191;-78
2022/10/15 00:04:51;;;;;;;0.20;0.20;;;;;;;;;;4994337;28;20190;-78
2022/10/15 00:07:16;;;;;;;0.40;0.20;;;;;;;;;;5004967;28;20202;-78
2022/10/15 00:09:41;;;;;;;0.10;0.10;;;;;;;;;;5006643;28;20218;-78
2022/10/15 00:12:06;;;;;;;0.00;0.00;;;;;;;;;;4994115;28;20270;-78
2022/10/15 00:14:32;;;;;;;0.47;0.17;;;;;;;;;;4995503;28;20207;-78
2022/10/15 00:16:57;;;;;;;0.43;0.10;;;;;;;;;;4996759;28;20172;-77
2022/10/15 00:19:22;;;;;;;0.27;0.20;;;;;;;;;;4995917;28;20198;-78
2022/10/15 00:21:47;;;;;;;1.10;0.10;;;;;;;;;;4994848;28;20223;-78
2022/10/15 00:24:13;;;;;;;0.20;0.17;;;;;;;;;;5015680;28;20193;-78
2022/10/15 00:26:38;;;;;;;0.77;0.20;;;;;;;;;;4996482;28;20225;-78
2022/10/15 00:29:03;;;;;;;0.97;0.30;;;;;;;;;;4994994;28;20406;-78
2022/10/15 00:31:29;;;;;;;0.97;0.10;;;;;;;;;;5017421;28;21697;-78
2022/10/15 00:33:56;;;;;;;0.20;0.20;;;;;;;;;;4999309;28;20279;-78
2022/10/15 00:36:25;;;;;;;0.17;0.17;;;;;;;;;;4998937;28;20192;-78
2022/10/15 00:38:51;;;;;;;0.10;0.10;;;;;;;;;;4996956;28;20171;-78
2022/10/15 00:41:23;;;;;;;0.10;0.10;;;;;;;;;;5028406;28;20207;-78
2022/10/15 00:43:50;;;;;;;0.07;0.07;;;;;;;;;;5016307;28;20226;-78
2022/10/15 00:46:15;;;;;;;0.17;0.10;;;;;;;;;;5015183;28;20235;-78
2022/10/15 00:48:40;;;;;;;1.30;0.30;;;;;;;;;;4988070;28;20183;-78
2022/10/15 00:51:05;;;;;;;0.10;0.10;;;;;;;;;;5017399;28;20235;-78
2022/10/15 00:53:31;;;;;;;0.27;0.20;;;;;;;;;;4992785;28;20260;-78
2022/10/15 00:55:57;;;;;;;0.77;0.20;;;;;;;;;;5020176;28;20440;-78
2022/10/15 00:58:27;;;;;;;0.10;0.10;;;;;;;;;;5018772;28;20183;-78
2022/10/15 01:00:53;;;;;;;0.10;0.10;;;;;;;;;;5008127;28;20277;-78
2022/10/15 01:03:18;;;;;;;0.10;0.10;;;;;;;;;;5011283;28;20258;-77
2022/10/15 01:05:45;;;;;;;0.10;0.10;;;;;;;;;;4995125;28;20196;-78
2022/10/15 01:08:11;;;;;;;0.07;0.07;;;;;;;;;;5001305;28;20176;-78
2022/10/15 01:10:46;;;;;;;0.57;0.30;;;;;;;;;;4998007;28;20207;-78
2022/10/15 01:13:16;;;;;;;0.30;0.20;;;;;;;;;;5002523;28;20182;-78
2022/10/15 01:15:41;;;;;;;0.10;0.10;;;;;;;;;;5001131;28;20276;-78
2022/10/15 01:18:13;;;;;;;0.10;0.10;;;;;;;;;;4994724;28;20314;-78
2022/10/15 01:20:45;;;;;;;0.30;0.20;;;;;;;;;;4987717;28;20178;-78
2022/10/15 01:23:26;;;;;;;0.10;0.10;;;;;;;;;;4995817;28;20185;-78
2022/10/15 01:26:02;;;;;;;0.23;0.23;;;;;;;;;;5001551;28;20274;-78
2022/10/15 01:28:27;;;;;;;0.73;0.20;;;;;;;;;;4994608;28;20221;-78
2022/10/15 01:31:00;;;;;;;0.10;0.10;;;;;;;;;;5016449;28;20214;-78
2022/10/15 01:33:30;;;;;;;0.20;0.10;;;;;;;;;;4999387;28;20197;-78
2022/10/15 01:36:16;;;;;;;1.23;0.20;;;;;;;;;;4992934;28;20174;-78
2022/10/15 01:38:54;;;;;;;1.43;0.37;;;;;;;;;;5010444;28;20179;-78
2022/10/15 01:41:23;;;;;;;0.10;0.10;;;;;;;;;;4999890;28;20224;-78
2022/10/15 01:43:55;;;;;;;0.20;0.20;;;;;;;;;;5009320;28;20215;-78
2022/10/15 01:46:23;;;;;;;0.27;0.27;;;;;;;;;;5002549;28;20233;-78
2022/10/15 01:48:51;;;;;;;3.00;0.53;;;;;;;;;;4996377;28;20182;-78
2022/10/15 01:51:18;;;;;;;0.40;0.20;;;;;;;;;;5010961;28;20235;-79
2022/10/15 01:53:44;;;;;;;0.97;0.30;;;;;;;;;;4991997;28;20179;-78
2022/10/15 01:56:13;;;;;;;0.13;0.13;;;;;;;;;;4990265;28;20173;-78
2022/10/15 01:58:41;;;;;;;0.10;0.10;;;;;;;;;;4993565;28;20176;-78
2022/10/15 02:01:06;;;;;;;0.17;0.17;;;;;;;;;;5003898;28;20189;-79
2022/10/15 02:03:31;;;;;;;0.23;0.20;;;;;;;;;;4996847;28;20175;-78
2022/10/15 02:06:07;;;;;;;0.30;0.30;;;;;;;;;;4997855;28;20181;-78
2022/10/15 02:08:47;;;;;;;0.10;0.10;;;;;;;;;;4982939;28;20190;-78
2022/10/15 02:11:14;;;;;;;0.23;0.13;;;;;;;;;;4990887;28;20208;-78
2022/10/15 02:13:45;;;;;;;0.00;0.00;;;;;;;;;;5005928;28;20186;-78
2022/10/15 02:16:23;;;;;;;0.77;0.30;;;;;;;;;;4990943;28;20194;-78
2022/10/15 02:19:11;;;;;;;0.20;0.20;;;;;;;;;;4999929;28;20234;-78
2022/10/15 02:21:36;;;;;;;0.60;0.17;;;;;;;;;;5000051;28;20188;-78
2022/10/15 02:24:01;;;;;;;0.90;0.70;;;;;;;;;;4991663;28;20255;-78
2022/10/15 02:26:28;;;;;;;1.00;0.83;;;;;;;;;;4995872;28;20191;-78
2022/10/15 02:28:54;;;;;;;0.57;0.20;;;;;;;;;;5003601;28;20187;-78
2022/10/15 02:31:21;;;;;;;0.20;0.17;;;;;;;;;;4994435;28;20201;-78
2022/10/15 02:33:48;;;;;;;0.20;0.10;;;;;;;;;;4998271;28;20280;-78
2022/10/15 02:36:13;;;;;;;0.17;0.10;;;;;;;;;;4992760;28;20349;-78
2022/10/15 02:38:40;;;;;;;0.03;0.03;;;;;;;;;;5003873;28;20280;-78
2022/10/15 02:41:06;;;;;;;0.53;0.30;;;;;;;;;;4997125;28;20193;-78
2022/10/15 02:43:31;;;;;;;0.93;0.10;;;;;;;;;;4996914;28;20316;-78
2022/10/15 02:45:56;;;;;;;0.40;0.10;;;;;;;;;;4996605;28;20291;-78
2022/10/15 02:48:22;;;;;;;0.00;0.00;;;;;;;;;;4994522;28;20261;-78
2022/10/15 02:50:48;;;;;;;0.20;0.20;;;;;;;;;;5016027;28;20227;-78
2022/10/15 02:53:13;;;;;;;0.10;0.10;;;;;;;;;;5039551;28;20175;-79
2022/10/15 02:55:38;;;;;;;0.20;0.20;;;;;;;;;;5017498;28;20176;-78
2022/10/15 02:58:03;;;;;;;0.27;0.27;;;;;;;;;;5022826;28;20178;-78
2022/10/15 03:00:29;;;;;;;0.10;0.10;;;;;;;;;;5014885;28;20187;-78
2022/10/15 03:02:55;;;;;;;0.10;0.10;;;;;;;;;;5018049;28;20183;-78
2022/10/15 03:05:20;;;;;;;0.10;0.10;;;;;;;;;;5025909;28;20219;-78
2022/10/15 03:07:45;;;;;;;0.30;0.17;;;;;;;;;;5035153;28;20353;-78
2022/10/15 03:10:10;;;;;;;0.20;0.20;;;;;;;;;;5014907;28;20203;-78
2022/10/15 03:12:35;;;;;;;0.20;0.20;;;;;;;;;;5011293;28;20188;-78
2022/10/15 03:15:01;;;;;;;0.10;0.10;;;;;;;;;;5019089;28;20180;-78
2022/10/15 03:17:26;;;;;;;1.17;0.20;;;;;;;;;;5014817;28;20180;-78
2022/10/15 03:19:51;;;;;;;0.17;0.17;;;;;;;;;;5015713;28;20175;-78
2022/10/15 03:22:17;;;;;;;0.10;0.10;;;;;;;;;;5016998;28;20188;-78
2022/10/15 03:24:42;;;;;;;0.10;0.10;;;;;;;;;;5018320;28;20176;-78
2022/10/15 03:27:07;;;;;;;0.13;0.13;;;;;;;;;;5006849;28;20190;-78
2022/10/15 03:29:32;;;;;;;2.03;0.30;;;;;;;;;;5012245;28;20186;-79
2022/10/15 03:31:58;;;;;;;1.50;0.27;;;;;;;;;;5019293;28;20222;-78
2022/10/15 03:34:23;;;;;;;0.20;0.20;;;;;;;;;;5030094;28;20194;-79
2022/10/15 03:36:48;;;;;;;0.20;0.20;;;;;;;;;;5017719;28;20196;-78
2022/10/15 03:39:13;;;;;;;1.67;0.53;;;;;;;;;;5014388;28;20183;-78
2022/10/15 03:41:39;;;;;;;0.70;0.70;;;;;;;;;;5032989;28;20179;-78
2022/10/15 03:44:05;;;;;;;0.37;0.30;;;;;;;;;;5014622;28;20194;-78
2022/10/15 03:46:30;;;;;;;0.47;0.30;;;;;;;;;;5015210;28;20201;-78
2022/10/15 03:48:55;;;;;;;0.27;0.27;;;;;;;;;;5032806;28;20179;-78
2022/10/15 03:51:20;;;;;;;0.20;0.20;;;;;;;;;;5016400;28;20264;-79
2022/10/15 03:53:46;;;;;;;0.30;0.30;;;;;;;;;;5016359;28;20212;-78
2022/10/15 03:56:11;;;;;;;0.50;0.50;;;;;;;;;;5005333;28;20227;-78
2022/10/15 03:58:36;;;;;;;0.70;0.70;;;;;;;;;;5014760;28;20178;-78
2022/10/15 04:01:06;;;;;;;0.70;0.70;;;;;;;;;;5014584;28;20186;-79
2022/10/15 04:03:32;;;;;;;0.50;0.50;;;;;;;;;;5017505;28;20210;-79
2022/10/15 04:05:57;;;;;;;0.63;0.60;;;;;;;;;;5016339;28;20205;-78
2022/10/15 04:08:22;;;;;;;2.63;0.50;;;;;;;;;;5014312;28;20207;-78
2022/10/15 04:10:49;;;;;;;0.30;0.30;;;;;;;;;;5035842;28;20206;-78
2022/10/15 04:13:14;;;;;;;0.63;0.50;;;;;;;;;;5021937;28;20179;-78
2022/10/15 04:15:39;;;;;;;0.40;0.40;;;;;;;;;;5023281;28;20180;-78
2022/10/15 04:18:05;;;;;;;1.20;0.33;;;;;;;;;;5011502;28;20179;-79
2022/10/15 04:20:30;;;;;;;0.50;0.50;;;;;;;;;;5004775;28;20179;-79
2022/10/15 04:22:55;;;;;;;0.47;0.47;;;;;;;;;;5038315;28;20274;-79
2022/10/15 04:25:20;;;;;;;0.57;0.57;;;;;;;;;;5015151;28;20188;-79
2022/10/15 04:27:46;;;;;;;0.60;0.30;;;;;;;;;;5013442;28;20234;-78
2022/10/15 04:30:11;;;;;;;0.27;0.27;;;;;;;;;;5012813;28;20209;-78
2022/10/15 04:32:36;;;;;;;0.30;0.30;;;;;;;;;;5012542;28;20175;-78
2022/10/15 04:35:02;;;;;;;0.50;0.37;;;;;;;;;;5013568;28;20183;-78
2022/10/15 04:37:27;;;;;;;0.30;0.30;;;;;;;;;;5034972;28;20181;-77
2022/10/15 04:39:52;;;;;;;0.47;0.47;;;;;;;;;;5015379;28;20214;-79
2022/10/15 04:42:17;;;;;;;0.40;0.40;;;;;;;;;;5013842;28;20190;-78
2022/10/15 04:44:42;;;;;;;0.40;0.40;;;;;;;;;;5001508;28;20178;-78
2022/10/15 04:47:08;;;;;;;0.50;0.50;;;;;;;;;;5015194;28;20210;-79
2022/10/15 04:49:33;;;;;;;0.40;0.40;;;;;;;;;;5027791;28;20177;-78
2022/10/15 04:51:58;;;;;;;0.73;0.53;;;;;;;;;;4984409;28;20304;-78
2022/10/15 04:54:23;;;;;;;0.23;0.23;;;;;;;;;;5015792;28;20266;-78
2022/10/15 04:56:49;;;;;;;0.50;0.50;;;;;;;;;;4992677;28;20216;-79
2022/10/15 04:59:14;;;;;;;0.60;0.60;;;;;;;;;;4994796;28;20180;-78
2022/10/15 05:01:39;;;;;;;1.40;1.27;;;;;;;;;;4993491;28;20203;-79
2022/10/15 05:04:04;;;;;;;4.63;3.43;;;;;;;;;;4994367;28;20198;-78
2022/10/15 05:06:31;;;;;;;4.67;4.27;;;;;;;;;;5009767;28;20184;-79
2022/10/15 05:08:56;;;;;;;1.47;1.37;;;;;;;;;;5010478;28;20190;-79
2022/10/15 05:11:22;;;;;;;8.00;7.20;;;;;;;;;;4995815;28;20209;-78
2022/10/15 05:13:48;;;;;;;2.17;2.07;;;;;;;;;;4986922;28;20264;-78
2022/10/15 05:16:21;;;;;;;1.27;1.17;;;;;;;;;;4986059;28;20197;-78
2022/10/15 05:18:47;;;;;;;3.00;1.27;;;;;;;;;;4995848;28;20196;-78
2022/10/15 05:21:13;;;;;;;2.73;0.90;;;;;;;;;;4993269;28;20211;-78
2022/10/15 05:23:39;;;;;;;2.00;1.83;;;;;;;;;;5000477;28;20314;-78
2022/10/15 05:26:09;;;;;;;0.80;0.80;;;;;;;;;;4990097;28;20189;-79
2022/10/15 05:28:35;;;;;;;1.23;1.23;;;;;;;;;;4990424;28;20183;-79
2022/10/15 05:31:07;;;;;;;2.70;1.63;;;;;;;;;;5011885;28;20203;-78
2022/10/15 05:33:33;;;;;;;1.70;1.60;;;;;;;;;;4993255;28;20178;-79
2022/10/15 05:36:08;;;;;;;0.83;0.83;;;;;;;;;;4993136;28;20246;-78
2022/10/15 05:38:33;;;;;;;1.40;1.00;;;;;;;;;;5018588;28;20183;-78
2022/10/15 05:40:58;;;;;;;1.10;1.00;;;;;;;;;;4997998;28;20198;-78
2022/10/15 05:43:23;;;;;;;1.30;0.80;;;;;;;;;;4988288;28;20187;-78
2022/10/15 05:45:52;;;;;;;3.93;3.63;;;;;;;;;;4991679;28;20197;-78
2022/10/15 05:48:17;;;;;;;1.43;1.10;;;;;;;;;;5004460;28;20272;-78
2022/10/15 05:50:42;;;;;;;1.20;1.10;;;;;;;;;;5004672;28;20318;-78
2022/10/15 05:53:08;;;;;;;1.57;0.93;;;;;;;;;;5030472;28;20267;-78
2022/10/15 05:55:33;;;;;;;1.30;1.20;;;;;;;;;;5026332;28;20186;-78
2022/10/15 05:58:02;;;;;;;1.20;1.13;;;;;;;;;;5011503;28;20178;-78
2022/10/15 06:00:27;;;;;;;1.77;1.07;;;;;;;;;;5016219;28;20237;-78
2022/10/15 06:02:53;;;;;;;1.77;1.33;;;;;;;;;;5012429;28;20187;-78
2022/10/15 06:05:18;;;;;;;1.10;1.00;;;;;;;;;;5012040;28;20219;-78
2022/10/15 06:07:43;;;;;;;0.90;0.90;;;;;;;;;;5026348;28;20189;-78
2022/10/15 06:10:08;;;;;;;1.37;1.10;;;;;;;;;;5030069;28;20249;-78
2022/10/15 06:12:34;;;;;;;0.90;0.90;;;;;;;;;;5010817;28;20177;-78
2022/10/15 06:14:59;;;;;;;1.57;1.10;;;;;;;;;;5048601;28;20180;-79
2022/10/15 06:17:24;;;;;;;1.60;1.50;;;;;;;;;;5018591;28;20535;-78
2022/10/15 06:19:49;;;;;;;4.27;2.87;;;;;;;;;;5018151;28;20268;-78
2022/10/15 06:22:14;;;;;;;1.60;1.37;;;;;;;;;;5019978;28;20226;-78
2022/10/15 06:24:40;;;;;;;1.80;1.40;;;;;;;;;;5020786;28;20212;-78
2022/10/15 06:27:08;;;;;;;3.77;1.70;;;;;;;;;;5019225;28;20187;-78
2022/10/15 06:29:34;;;;;;;2.87;2.00;;;;;;;;;;5017088;28;20504;-79
2022/10/15 06:32:00;;;;;;;2.33;1.97;;;;;;;;;;5016890;28;20336;-78
2022/10/15 06:34:26;;;;;;;2.33;1.90;;;;;;;;;;5018040;28;20184;-78
2022/10/15 06:36:51;;;;;;;2.67;2.10;;;;;;;;;;5018649;28;20179;-78
2022/10/15 06:39:17;;;;;;;2.67;2.30;;;;;;;;;;5022832;28;20186;-78
2022/10/15 06:41:42;;;;;;;3.53;2.93;;;;;;;;;;5023126;28;20197;-78
2022/10/15 06:44:07;;;;;;;2.73;2.10;;;;;;;;;;5029342;28;20186;-78
2022/10/15 06:46:32;;;;;;;2.00;1.80;;;;;;;;;;5015259;28;20409;-78
2022/10/15 06:48:58;;;;;;;5.83;1.47;;;;;;;;;;5018167;28;20205;-78
2022/10/15 06:51:23;;;;;;;1.87;1.70;;;;;;;;;;5014774;28;20224;-78
2022/10/15 06:53:48;;;;;;;1.70;1.60;;;;;;;;;;5000830;28;20175;-78
2022/10/15 06:56:13;;;;;;;1.83;1.40;;;;;;;;;;4999135;28;20187;-78
2022/10/15 06:58:40;;;;;;;1.40;1.30;;;;;;;;;;4995738;28;20178;-78
2022/10/15 07:01:06;;;;;;;2.53;1.97;;;;;;;;;;4993124;28;20194;-78
2022/10/15 07:03:31;;;;;;;2.43;1.80;;;;;;;;;;4998089;28;20266;-78
2022/10/15 07:06:00;;;;;;;2.87;1.40;;;;;;;;;;4997105;28;20229;-78
2022/10/15 07:08:26;;;;;;;1.73;1.63;;;;;;;;;;5017041;28;20624;-78
2022/10/15 07:10:51;;;;;;;1.20;1.10;;;;;;;;;;4988517;28;20233;-78
2022/10/15 07:13:16;;;;;;;1.60;1.03;;;;;;;;;;4994351;28;20182;-78
2022/10/15 07:15:43;;;;;;;1.03;0.93;;;;;;;;;;4999574;28;20189;-79
2022/10/15 07:18:08;;;;;;;1.77;1.30;;;;;;;;;;4999961;28;20250;-78
2022/10/15 07:20:33;;;;;;;1.90;1.13;;;;;;;;;;4998886;28;20186;-78
2022/10/15 07:23:00;;;;;;;1.40;0.80;;;;;;;;;;5005693;28;20276;-79
2022/10/15 07:25:26;;;;;;;2.43;1.10;;;;;;;;;;4999255;28;20231;-78
2022/10/15 07:27:51;;;;;;;1.30;1.20;;;;;;;;;;5011805;28;20207;-78
2022/10/15 07:30:17;;;;;;;0.97;0.97;;;;;;;;;;4993276;28;20257;-78
2022/10/15 07:32:42;;;;;;;0.97;0.90;;;;;;;;;;5005334;28;20182;-78
2022/10/15 07:35:07;;;;;;;2.50;1.10;;;;;;;;;;4989965;28;20186;-79
2022/10/15 07:37:33;;;;;;;1.00;1.00;;;;;;;;;;5000614;28;20209;-79
2022/10/15 07:39:58;;;;;;;3.27;1.10;;;;;;;;;;4997968;28;20198;-79
2022/10/15 07:42:23;;;;;;;0.70;0.70;;;;;;;;;;4996049;28;20219;-79
2022/10/15 07:44:49;;;;;;;1.03;0.90;;;;;;;;;;5011179;28;20261;-78
2022/10/15 07:47:14;;;;;;;0.93;0.93;;;;;;;;;;5016072;28;20201;-78
2022/10/15 07:49:39;;;;;;;1.10;0.90;;;;;;;;;;5002721;28;20175;-78
2022/10/15 07:52:07;;;;;;;0.60;0.60;;;;;;;;;;5030657;28;20223;-79
2022/10/15 07:54:32;;;;;;;1.57;0.93;;;;;;;;;;5014657;28;20267;-78
2022/10/15 07:56:57;;;;;;;1.00;1.00;;;;;;;;;;5013384;28;20178;-79
2022/10/15 07:59:23;;;;;;;0.70;0.70;;;;;;;;;;5004845;28;20178;-79
2022/10/15 08:01:50;;;;;;;0.80;0.80;;;;;;;;;;5045016;28;20235;-79
2022/10/15 08:04:15;;;;;;;0.87;0.60;;;;;;;;;;5009367;28;20543;-79
2022/10/15 08:06:40;;;;;;;0.80;0.80;;;;;;;;;;5012681;28;20262;-79
2022/10/15 08:09:05;;;;;;;3.07;2.87;;;;;;;;;;5010957;28;20198;-79
2022/10/15 08:11:30;;;;;;;1.43;1.00;;;;;;;;;;5006258;28;20217;-79
2022/10/15 08:13:56;;;;;;;0.93;0.93;;;;;;;;;;5011128;28;20185;-79
2022/10/15 08:16:21;;;;;;;1.40;1.30;;;;;;;;;;5009266;28;20180;-78
2022/10/15 08:18:47;;;;;;;0.87;0.87;;;;;;;;;;5017799;28;20195;-78
2022/10/15 08:21:12;;;;;;;1.73;1.23;;;;;;;;;;5009994;28;20183;-79
2022/10/15 08:23:37;;;;;;;0.50;0.50;;;;;;;;;;5028131;28;20179;-78
2022/10/15 08:26:03;;;;;;;0.90;0.90;;;;;;;;;;5012769;28;20257;-78
2022/10/15 08:28:29;;;;;;;0.60;0.60;;;;;;;;;;5015152;28;20176;-79
2022/10/15 08:30:56;;;;;;;0.93;0.37;;;;;;;;;;5018081;28;20210;-79
2022/10/15 08:33:21;;;;;;;0.63;0.40;;;;;;;;;;5012423;28;20179;-78
2022/10/15 08:35:46;;;;;;;0.60;0.60;;;;;;;;;;5024322;28;20190;-79
2022/10/15 08:38:12;;;;;;;0.47;0.40;;;;;;;;;;5009798;28;20204;-78
2022/10/15 08:40:37;;;;;;;0.57;0.50;;;;;;;;;;5011057;28;20180;-79
2022/10/15 08:43:04;;;;;;;0.67;0.67;;;;;;;;;;5012421;28;20195;-79
2022/10/15 08:45:35;;;;;;;3.30;3.00;;;;;;;;;;5015434;28;20175;-79
2022/10/15 08:48:10;;;;;;;0.67;0.67;;;;;;;;;;4997113;28;20270;-79
2022/10/15 08:50:58;;;;;;;0.87;0.60;;;;;;;;;;5026119;28;20227;-78
2022/10/15 08:53:23;;;;;;;0.50;0.50;;;;;;;;;;5020810;28;20246;-79
2022/10/15 08:55:50;;;;;;;1.10;1.00;;;;;;;;;;5035313;28;20264;-79
2022/10/15 08:58:22;;;;;;;0.50;0.50;;;;;;;;;;5011580;28;20183;-78
2022/10/15 09:00:50;;;;;;;0.60;0.60;;;;;;;;;;5010316;28;20187;-78
2022/10/15 09:03:25;;;;;;;0.67;0.67;;;;;;;;;;5007710;28;20194;-78
2022/10/15 09:05:59;;;;;;;0.40;0.40;;;;;;;;;;5006640;28;20200;-79
2022/10/15 09:08:30;;;;;;;1.53;0.70;;;;;;;;;;5007251;28;20194;-79
2022/10/15 09:11:24;;;;;;;0.93;0.50;;;;;;;;;;5015393;28;20203;-79
2022/10/15 09:13:50;;;;;;;1.13;0.80;;;;;;;;;;4993698;28;20184;-79
2022/10/15 09:16:17;;;;;;;0.50;0.50;;;;;;;;;;5010251;28;20241;-79
2022/10/15 09:18:47;;;;;;;1.43;0.80;;;;;;;;;;5014232;28;20234;-79
2022/10/15 09:21:12;;;;;;;0.37;0.37;;;;;;;;;;5012765;28;20233;-79
2022/10/15 09:23:40;;;;;;;0.20;0.20;;;;;;;;;;5026797;28;20180;-79
2022/10/15 09:26:11;;;;;;;0.47;0.47;;;;;;;;;;5008984;28;20183;-79
2022/10/15 09:28:56;;;;;;;0.80;0.80;;;;;;;;;;5028778;28;20507;-79
2022/10/15 09:31:23;;;;;;;0.70;0.70;;;;;;;;;;5009868;28;20223;-78
2022/10/15 09:34:15;;;;;;;0.60;0.40;;;;;;;;;;5007403;28;20186;-79
2022/10/15 09:36:50;;;;;;;1.13;0.40;;;;;;;;;;4979631;28;20191;-78
2022/10/15 09:39:24;;;;;;;0.73;0.60;;;;;;;;;;5010154;28;20178;-78
2022/10/15 09:41:59;;;;;;;0.40;0.40;;;;;;;;;;5009275;28;20194;-79
2022/10/15 09:44:27;;;;;;;1.57;0.50;;;;;;;;;;5009800;28;20213;-79
2022/10/15 09:46:53;;;;;;;0.53;0.53;;;;;;;;;;5008266;28;20205;-79
2022/10/15 09:49:18;;;;;;;0.70;0.70;;;;;;;;;;5028152;28;20263;-79
2022/10/15 09:51:46;;;;;;;0.80;0.80;;;;;;;;;;5001525;28;20228;-79
2022/10/15 09:54:16;;;;;;;1.17;0.50;;;;;;;;;;5028731;28;20186;-78
2022/10/15 09:56:45;;;;;;;0.93;0.50;;;;;;;;;;4991067;28;20481;-78
2022/10/15 09:59:17;;;;;;;0.93;0.50;;;;;;;;;;4983233;28;20178;-79
2022/10/15 10:01:55;;;;;;;1.20;0.50;;;;;;;;;;4989020;28;20191;-79
2022/10/15 10:04:20;;;;;;;0.67;0.67;;;;;;;;;;4996352;28;20184;-79
2022/10/15 10:06:45;;;;;;;0.57;0.57;;;;;;;;;;5009983;28;20191;-79
2022/10/15 10:09:19;;;;;;;0.63;0.57;;;;;;;;;;4996154;28;20204;-79
2022/10/15 10:11:52;;;;;;;1.50;0.90;;;;;;;;;;5018311;28;20206;-79
2022/10/15 10:14:28;;;;;;;1.57;0.60;;;;;;;;;;5019296;28;20193;-79
2022/10/15 10:17:12;;;;;;;1.60;0.87;;;;;;;;;;5005017;28;20200;-79
2022/10/15 10:19:37;;;;;;;0.67;0.67;;;;;;;;;;5002045;28;20184;-79
2022/10/15 10:22:16;;;;;;;0.63;0.60;;;;;;;;;;4996238;28;20248;-79
2022/10/15 10:24:42;;;;;;;0.80;0.80;;;;;;;;;;4995769;28;20206;-79
2022/10/15 10:27:21;;;;;;;1.97;0.70;;;;;;;;;;4996470;28;20227;-79
2022/10/15 10:29:57;;;;;;;1.30;0.80;;;;;;;;;;4986371;28;20177;-79
2022/10/15 10:32:26;;;;;;;2.10;0.80;;;;;;;;;;5021418;28;20298;-79
2022/10/15 10:34:52;;;;;;;0.80;0.80;;;;;;;;;;4993171;28;20188;-79
2022/10/15 10:37:17;;;;;;;1.37;0.83;;;;;;;;;;4993216;28;20192;-79
2022/10/15 10:39:44;;;;;;;1.37;1.27;;;;;;;;;;4988082;28;20203;-79
2022/10/15 10:42:16;;;;;;;2.93;1.57;;;;;;;;;;5013084;28;20187;-80
2022/10/15 10:44:45;;;;;;;1.60;1.17;;;;;;;;;;5005355;28;20188;-79
2022/10/15 10:47:14;;;;;;;0.50;0.50;;;;;;;;;;4993506;28;20213;-80
2022/10/15 10:49:40;;;;;;;0.87;0.87;;;;;;;;;;4989837;28;20196;-79
2022/10/15 10:52:17;;;;;;;3.00;1.27;;;;;;;;;;5010579;28;20273;-80
2022/10/15 10:54:42;;;;;;;0.53;0.53;;;;;;;;;;5007964;28;20184;-80
2022/10/15 10:57:10;;;;;;;1.40;1.30;;;;;;;;;;5043087;28;20207;-80
2022/10/15 10:59:47;;;;;;;1.87;1.00;;;;;;;;;;5006619;28;20271;-80
2022/10/15 11:02:12;;;;;;;1.30;0.80;;;;;;;;;;5047068;28;20241;-80
2022/10/15 11:04:38;;;;;;;1.40;1.30;;;;;;;;;;5015649;28;20193;-80
2022/10/15 11:07:05;;;;;;;1.70;1.60;;;;;;;;;;5018910;28;20183;-80
2022/10/15 11:09:36;;;;;;;2.10;1.87;;;;;;;;;;5013235;28;20191;-80
2022/10/15 11:12:06;;;;;;;1.70;1.10;;;;;;;;;;5028145;28;20213;-80
2022/10/15 11:14:50;;;;;;;2.03;1.17;;;;;;;;;;5015574;28;20498;-79
2022/10/15 11:17:23;;;;;;;2.73;1.20;;;;;;;;;;5013477;28;20183;-80
2022/10/15 11:20:07;;;;;;;2.33;1.20;;;;;;;;;;5017263;28;20179;-80
2022/10/15 11:22:42;;;;;;;1.90;1.00;;;;;;;;;;5013781;28;20180;-80
2022/10/15 11:25:25;;;;;;;0.77;0.77;;;;;;;;;;5014359;28;20211;-80
2022/10/15 11:28:09;;;;;;;1.30;1.20;;;;;;;;;;5012306;28;20181;-80
2022/10/15 11:30:47;;;;;;;1.43;1.00;;;;;;;;;;5011671;28;20221;-80
2022/10/15 11:33:27;;;;;;;2.13;1.40;;;;;;;;;;5015174;28;20179;-80
2022/10/15 11:35:55;;;;;;;4.93;1.03;;;;;;;;;;5013606;28;20250;-81
2022/10/15 11:38:20;;;;;;;0.90;0.77;;;;;;;;;;5022361;28;20280;-80
2022/10/15 11:40:45;;;;;;;1.60;1.10;;;;;;;;;;5013934;28;20272;-80
2022/10/15 11:43:20;;;;;;;1.07;0.93;;;;;;;;;;5000847;28;20189;-80
2022/10/15 11:46:18;;;;;;;1.40;0.90;;;;;;;;;;5027560;28;20181;-80
2022/10/15 11:49:02;;;;;;;1.30;1.20;;;;;;;;;;5015226;28;20192;-80
2022/10/15 11:51:30;;;;;;;1.00;0.83;;;;;;;;;;5019212;28;20243;-80
2022/10/15 11:54:33;;;;;;;1.10;0.80;;;;;;;;;;5134347;27;20543;-80
2022/10/15 11:57:00;;;;;;;1.13;0.93;;;;;;;;;;5114551;27;20258;-78
2022/10/15 11:59:36;;;;;;;2.83;0.90;;;;;;;;;;5107379;28;20182;-80
2022/10/15 12:02:10;;;;;;;1.97;1.20;;;;;;;;;;5104604;28;20205;-80
2022/10/15 12:04:54;;;;;;;1.20;1.10;;;;;;;;;;5105686;28;20246;-79
2022/10/15 12:07:29;;;;;;;2.07;0.97;;;;;;;;;;5106654;28;20207;-79
2022/10/15 12:09:58;;;;;;;1.73;1.23;;;;;;;;;;5106983;28;20253;-79
2022/10/15 12:12:32;;;;;;;0.90;0.77;;;;;;;;;;5103807;28;20198;-79
2022/10/15 12:15:20;;;;;;;1.17;1.03;;;;;;;;;;5106223;28;20175;-79
2022/10/15 12:17:52;;;;;;;0.70;0.70;;;;;;;;;;5107269;28;20182;-79
2022/10/15 12:20:19;;;;;;;1.10;0.90;;;;;;;;;;5102441;28;20244;-79
2022/10/15 12:22:58;;;;;;;1.83;1.10;;;;;;;;;;5100819;28;20173;-79
2022/10/15 12:25:32;;;;;;;1.00;0.90;;;;;;;;;;5139655;27;20185;-79
2022/10/15 12:28:02;;;;;;;1.47;0.80;;;;;;;;;;5103743;28;20174;-79
2022/10/15 12:30:31;;;;;;;0.73;0.73;;;;;;;;;;5106944;28;20188;-79
2022/10/15 12:32:56;;;;;;;0.80;0.80;;;;;;;;;;5106858;28;20201;-78
2022/10/15 12:35:33;;;;;;;1.20;1.10;;;;;;;;;;5103496;28;20190;-79
2022/10/15 12:38:08;;;;;;;0.80;0.80;;;;;;;;;;5107201;28;20209;-78
2022/10/15 12:40:36;;;;;;;1.20;1.10;;;;;;;;;;5135020;27;20176;-78
2022/10/15 12:43:04;;;;;;;3.30;1.13;;;;;;;;;;5104971;28;20183;-78
2022/10/15 12:45:33;;;;;;;1.00;1.00;;;;;;;;;;5106920;28;20232;-78
2022/10/15 12:48:04;;;;;;;0.87;0.80;;;;;;;;;;5105549;28;20177;-78
2022/10/15 12:50:31;;;;;;;0.70;0.70;;;;;;;;;;5106509;28;20176;-78
2022/10/15 12:52:58;;;;;;;1.77;0.90;;;;;;;;;;5099948;28;20222;-78
2022/10/15 12:55:26;;;;;;;1.57;0.97;;;;;;;;;;5100189;28;20186;-78
2022/10/15 12:57:52;;;;;;;1.37;1.07;;;;;;;;;;5102203;28;20209;-79
2022/10/15 13:00:23;;;;;;;1.00;1.00;;;;;;;;;;5107237;28;20177;-78
2022/10/15 13:02:49;;;;;;;1.13;1.00;;;;;;;;;;5105508;28;20464;-79
2022/10/15 13:05:30;;;;;;;1.20;1.10;;;;;;;;;;5094448;28;20178;-78
2022/10/15 13:07:57;;;;;;;3.00;1.30;;;;;;;;;;5088532;28;20181;-78
2022/10/15 13:10:26;;;;;;;1.23;1.00;;;;;;;;;;5088127;28;20245;-79
2022/10/15 13:12:56;;;;;;;0.90;0.90;;;;;;;;;;5085984;28;20252;-79
2022/10/15 13:15:23;;;;;;;1.37;1.23;;;;;;;;;;5089304;28;20193;-79
2022/10/15 13:17:49;;;;;;;0.97;0.97;;;;;;;;;;5091391;28;20208;-79
2022/10/15 13:20:35;;;;;;;1.40;0.90;;;;;;;;;;5090568;28;20205;-79
2022/10/15 13:23:15;;;;;;;1.23;1.17;;;;;;;;;;5089632;28;20206;-79
2022/10/15 13:25:41;;;;;;;1.63;0.83;;;;;;;;;;5089886;28;20187;-79
2022/10/15 13:28:26;;;;;;;1.20;1.10;;;;;;;;;;5086717;28;20242;-79
2022/10/15 13:30:52;;;;;;;1.07;1.00;;;;;;;;;;5089930;28;20230;-79
2022/10/15 13:33:17;;;;;;;1.10;1.00;;;;;;;;;;5090753;28;20210;-79
2022/10/15 13:35:42;;;;;;;0.77;0.77;;;;;;;;;;5089078;28;20201;-79
2022/10/15 13:38:17;;;;;;;1.50;0.90;;;;;;;;;;5084639;28;20278;-79
2022/10/15 13:40:46;;;;;;;1.07;0.97;;;;;;;;;;5087269;28;20218;-79
2022/10/15 13:43:24;;;;;;;0.80;0.80;;;;;;;;;;5089295;28;20179;-78
2022/10/15 13:45:53;;;;;;;0.87;0.87;;;;;;;;;;5091471;28;20212;-79
2022/10/15 13:48:23;;;;;;;0.90;0.90;;;;;;;;;;5089227;28;20183;-79
2022/10/15 13:50:51;;;;;;;0.80;0.80;;;;;;;;;;5084601;28;20188;-79
2022/10/15 13:53:27;;;;;;;1.60;0.97;;;;;;;;;;5085436;28;20230;-79
2022/10/15 13:55:54;;;;;;;3.00;1.10;;;;;;;;;;5089195;28;20202;-79
2022/10/15 13:58:20;;;;;;;0.93;0.93;;;;;;;;;;5091475;28;20183;-79
2022/10/15 14:01:04;;;;;;;1.17;1.00;;;;;;;;;;5084467;28;20257;-79
2022/10/15 14:03:30;;;;;;;1.00;0.90;;;;;;;;;;5084690;28;20244;-79
2022/10/15 14:05:56;;;;;;;1.97;1.50;;;;;;;;;;5091198;28;20187;-79
2022/10/15 14:08:31;;;;;;;4.53;1.30;;;;;;;;;;5090200;28;20202;-79
2022/10/15 14:10:57;;;;;;;1.53;1.23;;;;;;;;;;5089794;28;20289;-79
2022/10/15 14:13:23;;;;;;;1.03;0.93;;;;;;;;;;5105988;28;20290;-79
2022/10/15 14:15:58;;;;;;;1.23;1.00;;;;;;;;;;5090015;28;20514;-79
2022/10/15 14:18:31;;;;;;;0.80;0.80;;;;;;;;;;5079443;28;20250;-80
2022/10/15 14:20:57;;;;;;;1.03;0.93;;;;;;;;;;5082481;28;20206;-79
2022/10/15 14:23:23;;;;;;;1.37;0.93;;;;;;;;;;5085326;28;20296;-79
2022/10/15 14:25:57;;;;;;;4.63;2.70;;;;;;;;;;5088152;28;20205;-80
2022/10/15 14:28:23;;;;;;;4.87;1.57;;;;;;;;;;5087910;28;20177;-79
2022/10/15 14:30:49;;;;;;;4.83;1.23;;;;;;;;;;5077265;28;20182;-79
2022/10/15 14:33:28;;;;;;;1.00;0.87;;;;;;;;;;5088479;28;20204;-79
2022/10/15 14:36:06;;;;;;;1.00;1.00;;;;;;;;;;5087750;28;20200;-79
2022/10/15 14:38:31;;;;;;;1.80;1.10;;;;;;;;;;5084421;28;20186;-80
2022/10/15 14:40:58;;;;;;;1.13;1.10;;;;;;;;;;5089233;28;20180;-80
2022/10/15 14:43:28;;;;;;;0.77;0.77;;;;;;;;;;5088185;28;20188;-80
2022/10/15 14:45:55;;;;;;;1.43;1.10;;;;;;;;;;5086047;28;20218;-80
2022/10/15 14:48:21;;;;;;;0.60;0.60;;;;;;;;;;5089443;28;20179;-80
2022/10/15 14:50:46;;;;;;;1.27;1.17;;;;;;;;;;5084994;28;20186;-80